Archival Weather

Chicago O'Hare International

Chicago, Illinois (KORD)

Report from: Monday, December 26, 2022 9:51 PM CST
Current time: Friday, June 21, 2024 3:47 AM CDT

Current weather – Weather history – Daily summaries
Weather forecast

Temperature-10.6°C (12.9°F)
Wind chill-14.9°C (5.2°F)
Dew point-13.9°C (7.0°F)
Winds 4 kts (2.1 m/s, 4.6 mph) West (280°)
Visibility10 mi. (16.1 km)
Clouds Few clouds 5,500 ft. (1,676 m)
Few clouds 25,000 ft. (7,620 m)
Altimeter30.24 in.Hg (1024 mB)
Relative humidity77 %
Density altitude-3,579 ft. (-1,091 m)
Sea-level pressure102.5 kPa (1025 mB, 30.27 in.Hg)
Remarks System requires maintenance
Automated weather observing station with precipitation discriminator
Flight conditions Visual Meteorological Conditions
Raw dataKORD 270351Z 28004KT 10SM FEW055 FEW250 M11/M14 A3024 RMK AO2 SLP252 T11061139 $
An error has occurred. This application may no longer respond until reloaded. Reload 🗙